Time;durP1;ratioP1;P1;durP2;ratioP2;P2;SDS_P1;SDS_P2;PMS_P1;PMS_P2;Temp;Humidity;BMP_temperature;BMP_pressure;BME280_temperature;BME280_humidity;BME280_pressure;Samples;Min_cycle;Max_cycle;Signal;HPM_P1;HPM_P2
2021/09/24 00:00:29;;;;;;;2.43;1.37;;;;;;;13.49;90.36;100579.03;5038276;28;20743;-78
2021/09/24 00:02:56;;;;;;;5.17;1.50;;;;;;;13.38;90.46;100581.97;5037823;28;20257;-78
2021/09/24 00:05:24;;;;;;;6.23;1.80;;;;;;;13.36;90.62;100585.50;5038421;28;20211;-78
2021/09/24 00:07:51;;;;;;;5.77;2.17;;;;;;;13.24;91.43;100565.72;5037903;28;20231;-78
2021/09/24 00:10:19;;;;;;;3.83;1.70;;;;;;;13.17;91.79;100551.06;5036973;28;20278;-78
2021/09/24 00:12:46;;;;;;;5.03;2.10;;;;;;;13.15;91.66;100550.25;5038941;28;20285;-78
2021/09/24 00:15:15;;;;;;;7.23;1.80;;;;;;;13.15;91.65;100547.63;5037829;28;20203;-78
2021/09/24 00:17:42;;;;;;;5.80;1.97;;;;;;;13.12;92.04;100540.69;5044872;28;20226;-79
2021/09/24 00:20:09;;;;;;;4.53;2.00;;;;;;;13.06;92.08;100540.88;5057082;28;20198;-78
2021/09/24 00:22:37;;;;;;;5.27;1.87;;;;;;;13.01;91.81;100537.53;5046748;28;20208;-78
2021/09/24 00:25:05;;;;;;;6.43;2.33;;;;;;;12.99;91.94;100536.72;5037736;28;20214;-78
2021/09/24 00:27:31;;;;;;;5.00;2.07;;;;;;;12.82;92.24;100526.69;5036733;28;20223;-78
2021/09/24 00:29:58;;;;;;;9.67;2.27;;;;;;;12.85;92.35;100534.47;5053269;28;20284;-78
2021/09/24 00:32:24;;;;;;;6.43;2.43;;;;;;;12.70;92.33;100514.75;5056890;28;20206;-78
2021/09/24 00:34:51;;;;;;;4.17;1.90;;;;;;;12.67;93.08;100504.38;5064772;28;20582;-78
2021/09/24 00:37:17;;;;;;;6.00;2.30;;;;;;;12.73;92.34;100524.31;5066928;28;20226;-78
2021/09/24 00:39:45;;;;;;;5.27;1.93;;;;;;;12.73;92.21;100530.41;5067292;28;20202;-78
2021/09/24 00:42:11;;;;;;;7.80;2.00;;;;;;;12.70;92.30;100541.84;5065613;28;20271;-78
2021/09/24 00:44:47;;;;;;;3.83;1.70;;;;;;;12.69;92.07;100542.72;5059492;28;20268;-78
2021/09/24 00:47:14;;;;;;;2.90;1.47;;;;;;;12.66;92.18;100536.69;5056524;28;20280;-78
2021/09/24 00:49:40;;;;;;;6.83;2.43;;;;;;;12.70;91.75;100548.81;5056232;28;20222;-78
2021/09/24 00:52:08;;;;;;;5.70;1.70;;;;;;;12.68;92.00;100548.84;5056254;28;20642;-78
2021/09/24 00:54:35;;;;;;;8.07;2.53;;;;;;;12.63;92.05;100552.50;5056832;28;20202;-78
2021/09/24 00:57:04;;;;;;;7.33;2.10;;;;;;;12.58;92.13;100541.28;5056610;28;20279;-78
2021/09/24 00:59:31;;;;;;;3.70;2.13;;;;;;;12.50;92.59;100526.63;5056471;28;20279;-78
2021/09/24 01:01:58;;;;;;;4.27;1.97;;;;;;;12.45;92.97;100506.72;5056447;28;20231;-78
2021/09/24 01:04:26;;;;;;;4.93;1.90;;;;;;;12.47;93.34;100494.44;5044879;28;20206;-78
2021/09/24 01:06:52;;;;;;;6.03;2.63;;;;;;;12.47;93.43;100489.22;5051905;28;20627;-78
2021/09/24 01:09:19;;;;;;;7.80;3.13;;;;;;;12.51;93.51;100488.22;5056012;28;20206;-78
2021/09/24 01:11:46;;;;;;;6.90;3.40;;;;;;;12.45;94.04;100476.16;5056624;28;20208;-78
2021/09/24 01:14:14;;;;;;;7.10;3.70;;;;;;;12.49;94.09;100474.31;5056219;28;20214;-78
2021/09/24 01:16:40;;;;;;;9.27;3.47;;;;;;;12.54;94.49;100468.94;5056011;28;20243;-78
2021/09/24 01:19:06;;;;;;;6.77;4.53;;;;;;;12.60;94.48;100455.69;5055062;28;20203;-78
2021/09/24 01:21:35;;;;;;;9.90;4.07;;;;;;;12.59;94.63;100456.59;5056125;28;20824;-78
2021/09/24 01:24:02;;;;;;;7.23;4.17;;;;;;;12.62;94.44;100462.59;5056364;28;20201;-78
2021/09/24 01:26:29;;;;;;;7.20;3.67;;;;;;;12.55;95.08;100454.94;5056120;28;20235;-78
2021/09/24 01:28:56;;;;;;;5.93;3.87;;;;;;;12.56;94.77;100449.66;5055920;28;20210;-78
2021/09/24 01:31:23;;;;;;;7.77;4.60;;;;;;;12.50;95.22;100432.34;5055871;28;20230;-78
2021/09/24 01:33:51;;;;;;;8.57;4.07;;;;;;;12.47;95.08;100442.09;5045199;28;20261;-78
2021/09/24 01:36:18;;;;;;;5.43;4.00;;;;;;;12.30;95.35;100435.50;5035885;28;20209;-78
2021/09/24 01:38:48;;;;;;;8.57;4.30;;;;;;;12.36;95.39;100417.94;5041137;28;20761;-78
2021/09/24 01:41:14;;;;;;;7.73;4.27;;;;;;;12.32;95.10;100433.72;5055802;28;20231;-78
2021/09/24 01:43:41;;;;;;;7.40;3.77;;;;;;;12.22;95.67;100428.78;5055724;28;20687;-78
2021/09/24 01:46:07;;;;;;;7.03;3.77;;;;;;;12.32;94.91;100436.31;5055431;28;20271;-78
2021/09/24 01:48:34;;;;;;;9.23;4.77;;;;;;;12.15;95.74;100428.06;5050645;28;20251;-78
2021/09/24 01:51:00;;;;;;;7.47;4.37;;;;;;;12.12;95.83;100423.75;5054982;28;20237;-78
2021/09/24 01:53:26;;;;;;;9.57;3.83;;;;;;;12.11;95.55;100427.28;5055826;28;20581;-77
2021/09/24 01:55:54;;;;;;;8.53;3.73;;;;;;;12.06;95.65;100429.16;5055497;28;20211;-78
2021/09/24 01:58:21;;;;;;;8.63;4.00;;;;;;;12.06;95.94;100428.31;5055256;28;20636;-78
2021/09/24 02:00:47;;;;;;;11.07;4.00;;;;;;;12.08;95.71;100429.13;5048990;28;20195;-78
2021/09/24 02:03:13;;;;;;;8.77;3.50;;;;;;;12.22;95.62;100436.63;5035564;28;20202;-78
2021/09/24 02:05:40;;;;;;;9.80;4.30;;;;;;;12.16;95.31;100447.25;5035593;28;20559;-78
2021/09/24 02:08:07;;;;;;;6.57;3.80;;;;;;;12.08;95.38;100450.91;5035118;28;20230;-78
2021/09/24 02:10:33;;;;;;;6.97;3.83;;;;;;;12.03;96.00;100436.22;5035083;28;20254;-78
2021/09/24 02:13:03;;;;;;;5.80;3.67;;;;;;;12.06;96.04;100431.78;5034903;28;20668;-78
2021/09/24 02:15:30;;;;;;;7.93;3.47;;;;;;;12.04;95.33;100445.78;5034927;28;20216;-78
2021/09/24 02:17:57;;;;;;;8.07;3.70;;;;;;;12.03;95.85;100444.06;5051853;28;20290;-78
2021/09/24 02:20:23;;;;;;;6.07;3.43;;;;;;;11.99;95.80;100447.66;5054786;28;20197;-77
2021/09/24 02:22:49;;;;;;;8.03;3.20;;;;;;;12.04;95.51;100456.25;5055451;28;20259;-78
2021/09/24 02:25:16;;;;;;;6.97;3.53;;;;;;;11.99;95.73;100451.16;5055629;28;20681;-78
2021/09/24 02:27:42;;;;;;;5.93;3.13;;;;;;;11.94;95.81;100436.47;5055010;28;20643;-78
2021/09/24 02:30:11;;;;;;;7.87;3.90;;;;;;;11.97;95.76;100436.38;5053646;28;20221;-80
2021/09/24 02:32:38;;;;;;;5.00;3.37;;;;;;;12.05;96.04;100435.31;5054996;28;20205;-78
2021/09/24 02:35:06;;;;;;;6.13;3.30;;;;;;;12.12;95.43;100446.47;5055317;28;20217;-78
2021/09/24 02:37:32;;;;;;;7.43;3.10;;;;;;;12.10;95.30;100463.94;5055712;28;20710;-78
2021/09/24 02:39:58;;;;;;;8.80;3.33;;;;;;;12.14;95.36;100465.59;5056221;28;20232;-78
2021/09/24 02:42:26;;;;;;;5.27;2.80;;;;;;;12.06;95.26;100472.78;5055785;28;20215;-78
2021/09/24 02:44:53;;;;;;;6.53;2.97;;;;;;;12.04;95.24;100462.34;5040002;28;20237;-78
2021/09/24 02:47:21;;;;;;;5.90;3.30;;;;;;;12.09;95.07;100462.22;5048328;28;20226;-78
2021/09/24 02:49:48;;;;;;;9.33;3.70;;;;;;;12.11;95.13;100468.31;5055972;28;20206;-79
2021/09/24 02:52:14;;;;;;;9.80;4.40;;;;;;;12.09;95.11;100472.69;5057085;28;20292;-78
2021/09/24 02:54:41;;;;;;;6.83;4.27;;;;;;;12.11;95.28;100474.38;5057033;28;20201;-79
2021/09/24 02:57:07;;;;;;;8.67;5.17;;;;;;;12.07;95.12;100464.00;5057166;28;20231;-78
2021/09/24 02:59:34;;;;;;;8.30;4.67;;;;;;;11.99;95.95;100439.81;5041465;28;20208;-79
2021/09/24 03:02:00;;;;;;;9.13;6.20;;;;;;;11.97;96.66;100418.94;5036311;28;20207;-79
2021/09/24 03:04:28;;;;;;;7.20;6.07;;;;;;;12.01;96.49;100412.72;5037593;28;20206;-79
2021/09/24 03:06:54;;;;;;;8.90;5.83;;;;;;;11.98;97.21;100397.09;5038978;28;20230;-78
2021/09/24 03:09:21;;;;;;;10.63;6.83;;;;;;;11.92;97.53;100390.25;5034688;28;20211;-78
2021/09/24 03:11:47;;;;;;;13.37;5.70;;;;;;;11.95;97.30;100384.09;5034759;28;20762;-78
2021/09/24 03:14:14;;;;;;;8.77;5.10;;;;;;;12.00;97.26;100390.06;5048096;28;20640;-78
2021/09/24 03:16:41;;;;;;;9.40;5.63;;;;;;;12.06;96.92;100397.75;5054557;28;20281;-78
2021/09/24 03:19:08;;;;;;;10.77;6.77;;;;;;;11.93;97.61;100388.50;5053831;28;20661;-77
2021/09/24 03:21:36;;;;;;;8.57;5.57;;;;;;;11.90;97.79;100381.59;5054848;28;20205;-78
2021/09/24 03:24:02;;;;;;;8.73;6.70;;;;;;;11.92;98.25;100385.03;5054885;28;20206;-78
2021/09/24 03:26:28;;;;;;;9.23;6.10;;;;;;;11.88;98.28;100378.13;5054028;28;20634;-78
2021/09/24 03:28:55;;;;;;;11.80;5.93;;;;;;;11.84;98.15;100381.72;5042984;28;20667;-77
2021/09/24 03:31:22;;;;;;;8.80;5.90;;;;;;;11.85;98.48;100390.41;5037838;28;20226;-78
2021/09/24 03:33:49;;;;;;;12.37;6.73;;;;;;;11.77;98.98;100376.69;5037798;28;20289;-78
2021/09/24 03:36:15;;;;;;;9.73;6.77;;;;;;;11.84;98.82;100373.88;5038054;28;20947;-78
2021/09/24 03:38:43;;;;;;;13.43;7.27;;;;;;;11.81;98.64;100378.31;5037728;28;20263;-78
2021/09/24 03:41:09;;;;;;;8.23;6.53;;;;;;;11.83;98.46;100400.06;5037702;28;20754;-78
2021/09/24 03:43:36;;;;;;;9.10;6.50;;;;;;;11.83;98.81;100385.25;5051525;28;20202;-78
2021/09/24 03:46:02;;;;;;;12.27;6.87;;;;;;;11.77;98.56;100388.00;5057386;28;20767;-77
2021/09/24 03:48:29;;;;;;;8.03;6.63;;;;;;;11.80;98.62;100394.91;5057020;28;20255;-78
2021/09/24 03:50:56;;;;;;;8.83;6.47;;;;;;;11.86;98.27;100403.47;5057118;28;20300;-78
2021/09/24 03:53:22;;;;;;;8.67;7.00;;;;;;;11.84;97.84;100413.09;5057611;28;20687;-77
2021/09/24 03:55:52;;;;;;;9.77;6.27;;;;;;;11.80;97.80;100419.31;5057503;28;20213;-78
2021/09/24 03:58:19;;;;;;;9.00;6.27;;;;;;;11.84;97.74;100414.88;5043897;28;20295;-78
2021/09/24 04:00:45;;;;;;;8.93;6.43;;;;;;;11.77;98.07;100426.38;5037605;28;20263;-78
2021/09/24 04:03:12;;;;;;;10.43;6.90;;;;;;;11.84;98.02;100414.88;5036887;28;20207;-78
2021/09/24 04:05:38;;;;;;;8.57;6.67;;;;;;;11.76;97.99;100417.66;5037073;28;20210;-78
2021/09/24 04:08:05;;;;;;;8.37;6.17;;;;;;;11.80;97.77;100415.84;5037018;28;20230;-78
2021/09/24 04:10:31;;;;;;;12.20;6.90;;;;;;;11.77;97.67;100408.91;5037497;28;20751;-77
2021/09/24 04:12:59;;;;;;;7.83;5.70;;;;;;;11.75;97.90;100417.69;5037091;28;20257;-77
2021/09/24 04:15:26;;;;;;;11.73;5.73;;;;;;;11.77;98.03;100421.97;5036801;28;20214;-77
2021/09/24 04:17:52;;;;;;;5.90;5.13;;;;;;;11.77;97.75;100421.97;5053396;28;20260;-77
2021/09/24 04:20:19;;;;;;;7.63;6.37;;;;;;;11.76;97.66;100445.59;5056236;28;20763;-77
2021/09/24 04:22:45;;;;;;;6.17;5.20;;;;;;;11.73;97.48;100443.88;5057396;28;20205;-78
2021/09/24 04:25:12;;;;;;;7.00;5.50;;;;;;;11.73;97.67;100429.06;5057606;28;20255;-77
2021/09/24 04:27:39;;;;;;;7.77;6.57;;;;;;;11.74;97.52;100427.31;5056339;28;20217;-78
2021/09/24 04:30:09;;;;;;;6.97;5.43;;;;;;;11.68;98.28;100424.84;5056521;28;20751;-77
2021/09/24 04:32:36;;;;;;;9.40;5.57;;;;;;;11.66;98.62;100411.78;5056749;28;20283;-78
2021/09/24 04:35:04;;;;;;;8.53;5.77;;;;;;;11.76;98.60;100409.81;5056820;28;20201;-78
2021/09/24 04:37:31;;;;;;;7.70;5.80;;;;;;;11.76;98.77;100399.34;5057205;28;20261;-77
2021/09/24 04:39:57;;;;;;;7.57;5.30;;;;;;;11.73;98.55;100397.69;5056895;28;20209;-78
2021/09/24 04:42:24;;;;;;;7.53;5.23;;;;;;;11.79;99.22;100377.50;5045244;28;20261;-78
2021/09/24 04:44:50;;;;;;;5.57;5.13;;;;;;;11.81;99.21;100375.69;5037106;28;20252;-77
2021/09/24 04:47:18;;;;;;;7.07;4.97;;;;;;;11.87;99.15;100376.44;5048781;28;20222;-78
2021/09/24 04:49:44;;;;;;;7.87;5.80;;;;;;;11.89;99.37;100387.75;5057192;28;20623;-78
2021/09/24 04:52:11;;;;;;;8.83;5.43;;;;;;;11.92;99.44;100384.19;5057639;28;20249;-77
2021/09/24 04:54:38;;;;;;;7.30;6.50;;;;;;;11.96;99.40;100383.19;5057238;28;20708;-78
2021/09/24 04:57:04;;;;;;;6.40;5.70;;;;;;;12.02;99.28;100393.50;5055940;28;20217;-78
2021/09/24 04:59:31;;;;;;;6.97;6.03;;;;;;;12.00;99.66;100383.97;5056688;28;20206;-78
2021/09/24 05:01:57;;;;;;;10.70;6.70;;;;;;;11.99;99.70;100370.06;5056417;28;20230;-77
2021/09/24 05:04:25;;;;;;;8.90;6.30;;;;;;;12.10;99.70;100375.00;5056750;28;20667;-78
2021/09/24 05:06:51;;;;;;;10.97;7.00;;;;;;;11.99;100.00;100369.16;5056867;28;20228;-78
2021/09/24 05:09:18;;;;;;;7.93;7.13;;;;;;;12.07;100.00;100352.41;5056518;28;20213;-78
2021/09/24 05:11:44;;;;;;;9.57;6.40;;;;;;;12.10;100.00;100364.53;5045382;28;20226;-78
2021/09/24 05:14:11;;;;;;;6.47;5.87;;;;;;;12.21;99.92;100378.19;5035660;28;20204;-78
2021/09/24 05:16:37;;;;;;;10.07;5.63;;;;;;;12.26;99.76;100399.00;5043479;28;20229;-78
2021/09/24 05:19:04;;;;;;;10.40;5.50;;;;;;;12.24;99.83;100395.56;5057100;28;20197;-78
2021/09/24 05:21:31;;;;;;;7.83;5.83;;;;;;;12.29;99.37;100396.31;5057131;28;20202;-78
2021/09/24 05:23:58;;;;;;;14.73;6.20;;;;;;;12.32;99.28;100402.31;5058245;28;20587;-78
2021/09/24 05:26:24;;;;;;;6.60;5.40;;;;;;;12.35;99.47;100404.00;5045927;28;20222;-78
2021/09/24 05:28:51;;;;;;;12.83;6.67;;;;;;;12.35;99.57;100397.88;5036936;28;20602;-78
2021/09/24 05:31:17;;;;;;;7.93;6.80;;;;;;;12.41;99.98;100384.66;5037344;28;20258;-78
2021/09/24 05:33:44;;;;;;;7.70;6.90;;;;;;;12.46;99.92;100380.13;5037805;28;20260;-78
2021/09/24 05:36:11;;;;;;;14.90;7.60;;;;;;;12.57;99.86;100382.47;5037557;28;20207;-78
2021/09/24 05:38:39;;;;;;;11.63;7.50;;;;;;;12.63;99.86;100383.16;5037519;28;20214;-78
2021/09/24 05:41:06;;;;;;;10.17;7.90;;;;;;;12.69;99.63;100401.31;5036811;28;20273;-78
2021/09/24 05:43:32;;;;;;;10.97;8.40;;;;;;;12.75;99.85;100399.41;5037673;28;20207;-78
2021/09/24 05:45:59;;;;;;;10.13;7.30;;;;;;;12.76;99.89;100395.88;5037852;28;20219;-77
2021/09/24 05:48:25;;;;;;;14.10;8.33;;;;;;;12.83;99.57;100393.03;5045467;28;20218;-77
2021/09/24 05:50:52;;;;;;;11.00;7.90;;;;;;;12.88;99.24;100398.16;5051856;28;20204;-77
2021/09/24 05:53:18;;;;;;;10.23;7.17;;;;;;;12.95;99.32;100407.56;5032941;28;20207;-77
2021/09/24 05:55:46;;;;;;;10.13;7.13;;;;;;;13.01;98.98;100412.59;5032699;28;20622;-77
2021/09/24 05:58:13;;;;;;;11.83;7.43;;;;;;;13.02;98.70;100416.06;5047991;28;20225;-77
2021/09/24 06:00:39;;;;;;;14.10;6.87;;;;;;;13.06;98.67;100418.59;5053108;28;20201;-77
2021/09/24 06:03:06;;;;;;;9.03;6.50;;;;;;;13.09;98.58;100418.47;5052184;28;20578;-77
2021/09/24 06:05:33;;;;;;;7.27;5.63;;;;;;;13.16;98.49;100423.53;5052623;28;20257;-77
2021/09/24 06:08:00;;;;;;;9.90;5.47;;;;;;;13.17;98.18;100435.75;5052477;28;20230;-78
2021/09/24 06:10:27;;;;;;;6.93;4.27;;;;;;;13.23;98.43;100443.44;5052902;28;20237;-77
2021/09/24 06:12:54;;;;;;;8.13;4.17;;;;;;;13.22;97.82;100449.56;5036672;28;20219;-77
2021/09/24 06:15:25;;;;;;;9.70;4.10;;;;;;;13.18;97.61;100469.78;5032096;28;20211;-78
2021/09/24 06:17:53;;;;;;;7.43;3.63;;;;;;;13.24;97.85;100482.72;5048750;28;20226;-77
2021/09/24 06:20:20;;;;;;;5.13;3.30;;;;;;;13.26;97.23;100483.53;5052117;28;20257;-77
2021/09/24 06:22:48;;;;;;;6.33;3.70;;;;;;;13.23;97.54;100490.59;5052244;28;20210;-76
2021/09/24 06:25:15;;;;;;;7.70;3.20;;;;;;;13.31;96.97;100497.38;5051922;28;20206;-77
2021/09/24 06:27:42;;;;;;;6.07;3.20;;;;;;;13.36;96.69;100504.22;5051612;28;20219;-77
2021/09/24 06:30:12;;;;;;;8.17;2.60;;;;;;;13.42;96.28;100522.41;5052038;28;20274;-77
2021/09/24 06:32:39;;;;;;;6.50;2.97;;;;;;;13.43;96.44;100526.75;5051519;28;20284;-77
2021/09/24 06:35:07;;;;;;;5.27;2.60;;;;;;;13.53;96.25;100540.47;5059928;28;20199;-77
2021/09/24 06:37:34;;;;;;;7.53;2.67;;;;;;;13.57;95.34;100550.81;5061861;28;20210;-76
2021/09/24 06:40:00;;;;;;;3.97;2.80;;;;;;;13.55;95.43;100560.47;5057931;28;20198;-77
2021/09/24 06:42:26;;;;;;;8.17;2.17;;;;;;;13.64;95.68;100551.50;5062418;28;20245;-77
2021/09/24 06:44:53;;;;;;;4.70;2.57;;;;;;;13.66;94.96;100562.81;5060486;28;20256;-77
2021/09/24 06:47:21;;;;;;;7.30;3.20;;;;;;;13.66;95.00;100570.69;5060594;28;20222;-76
2021/09/24 06:49:47;;;;;;;5.53;3.10;;;;;;;13.72;95.11;100572.28;5057830;28;20257;-77
2021/09/24 06:52:14;;;;;;;6.10;2.80;;;;;;;13.74;94.65;100573.06;5060059;28;20225;-77
2021/09/24 06:54:40;;;;;;;7.10;2.30;;;;;;;13.75;94.76;100575.63;5058978;28;20635;-76
2021/09/24 06:57:08;;;;;;;6.40;2.70;;;;;;;13.80;94.74;100576.38;5062286;28;20292;-77
2021/09/24 06:59:34;;;;;;;5.00;2.70;;;;;;;13.83;94.46;100583.28;5060886;28;20194;-77
2021/09/24 07:02:00;;;;;;;15.30;4.00;;;;;;;13.86;94.26;100583.19;5063742;28;20221;-76
2021/09/24 07:04:28;;;;;;;7.70;2.70;;;;;;;13.94;93.99;100586.44;5064113;28;20202;-77
2021/09/24 07:06:55;;;;;;;7.10;3.53;;;;;;;13.98;93.73;100602.97;5065649;28;20214;-77
2021/09/24 07:09:21;;;;;;;4.83;3.20;;;;;;;13.97;94.20;100602.09;5063657;28;20194;-77
2021/09/24 07:11:50;;;;;;;8.77;3.40;;;;;;;13.98;94.39;100587.22;5066299;28;20218;-77
2021/09/24 07:14:18;;;;;;;6.77;3.50;;;;;;;13.97;94.24;100586.34;5063867;28;20205;-77
2021/09/24 07:16:45;;;;;;;8.50;3.70;;;;;;;13.92;94.68;100571.66;5062234;28;20238;-77
2021/09/24 07:19:11;;;;;;;7.23;3.60;;;;;;;13.95;94.97;100571.56;5062894;28;20195;-77
2021/09/24 07:21:39;;;;;;;8.07;3.70;;;;;;;13.99;94.84;100570.53;5056422;28;20253;-77
2021/09/24 07:24:06;;;;;;;4.50;3.57;;;;;;;14.01;94.51;100569.63;5055824;28;20277;-77
2021/09/24 07:26:35;;;;;;;10.47;3.73;;;;;;;14.08;94.42;100570.28;5062417;28;20222;-77
2021/09/24 07:29:03;;;;;;;8.50;3.50;;;;;;;14.07;94.90;100576.41;5063582;28;20661;-77
2021/09/24 07:31:29;;;;;;;6.67;3.33;;;;;;;14.10;94.38;100573.72;5059649;28;20202;-77
2021/09/24 07:33:56;;;;;;;5.03;3.17;;;;;;;14.12;94.27;100578.91;5059887;28;20199;-77
2021/09/24 07:36:23;;;;;;;4.00;2.50;;;;;;;14.23;94.44;100582.91;5064734;28;20223;-77
2021/09/24 07:38:51;;;;;;;5.17;3.00;;;;;;;14.27;94.32;100591.53;5066870;28;20233;-77
2021/09/24 07:41:18;;;;;;;11.07;3.20;;;;;;;14.27;93.97;100592.41;5061713;28;20579;-77
2021/09/24 07:43:46;;;;;;;13.53;4.10;;;;;;;14.30;94.01;100608.06;5064245;28;20661;-77
2021/09/24 07:46:16;;;;;;;5.23;3.00;;;;;;;14.37;93.79;100606.13;5065255;28;20209;-77
2021/09/24 07:48:43;;;;;;;5.87;3.63;;;;;;;14.40;93.44;100626.16;5055094;28;20206;-77
2021/09/24 07:51:11;;;;;;;5.30;3.13;;;;;;;14.47;93.17;100635.56;5054869;28;20203;-77
2021/09/24 07:53:38;;;;;;;8.33;3.07;;;;;;;14.50;92.95;100641.56;5055320;28;20231;-77
2021/09/24 07:56:07;;;;;;;4.00;2.67;;;;;;;14.52;92.81;100643.28;5056744;28;20273;-77
2021/09/24 07:58:35;;;;;;;5.73;2.73;;;;;;;14.48;92.96;100643.38;5061977;28;20672;-76
2021/09/24 08:01:02;;;;;;;6.63;3.23;;;;;;;14.50;92.97;100633.69;5067007;28;20269;-76
2021/09/24 08:03:29;;;;;;;6.90;3.77;;;;;;;14.56;92.81;100642.28;5061622;28;20192;-76
2021/09/24 08:05:55;;;;;;;7.10;3.83;;;;;;;14.65;93.08;100636.78;5070342;28;20195;-77
2021/09/24 08:08:22;;;;;;;5.70;3.40;;;;;;;14.61;92.52;100649.16;5051672;28;20228;-77
2021/09/24 08:10:48;;;;;;;5.80;3.17;;;;;;;14.64;92.89;100648.19;5055381;28;20264;-77
2021/09/24 08:13:16;;;;;;;5.53;3.03;;;;;;;14.58;92.51;100645.75;5055580;28;20236;-77
2021/09/24 08:15:43;;;;;;;7.40;3.10;;;;;;;14.65;92.61;100640.25;5054097;28;20239;-80
2021/09/24 08:18:10;;;;;;;6.87;3.43;;;;;;;14.69;92.74;100644.50;5056202;28;20223;-79
2021/09/24 08:20:36;;;;;;;5.00;2.80;;;;;;;14.64;91.95;100658.69;5054775;28;20198;-80
2021/09/24 08:23:03;;;;;;;6.33;2.73;;;;;;;14.76;92.38;100653.03;5056019;28;20204;-78
2021/09/24 08:25:29;;;;;;;3.57;2.70;;;;;;;14.78;92.37;100664.34;5056791;28;20333;-81
2021/09/24 08:27:56;;;;;;;7.60;3.40;;;;;;;14.77;92.54;100654.75;5056173;28;20227;-81
2021/09/24 08:30:25;;;;;;;3.83;2.77;;;;;;;14.80;92.44;100651.16;5056047;28;20211;-80
2021/09/24 08:32:52;;;;;;;4.07;3.30;;;;;;;14.76;92.39;100644.28;5056106;28;20231;-79
2021/09/24 08:35:21;;;;;;;5.57;2.77;;;;;;;14.85;92.42;100644.84;5056844;28;20629;-79
2021/09/24 08:37:49;;;;;;;4.80;2.87;;;;;;;14.89;92.19;100650.88;5056315;28;20233;-77
2021/09/24 08:40:17;;;;;;;6.60;3.10;;;;;;;14.97;91.87;100669.88;5054702;28;20295;-77
2021/09/24 08:42:44;;;;;;;4.00;3.00;;;;;;;14.91;91.65;100685.00;5055014;28;20261;-77
2021/09/24 08:45:12;;;;;;;11.10;3.47;;;;;;;14.90;91.24;100678.84;5055678;28;20273;-77
2021/09/24 08:47:40;;;;;;;5.67;3.37;;;;;;;14.99;91.57;100683.81;5055476;28;20309;-77
2021/09/24 08:50:08;;;;;;;7.03;3.27;;;;;;;15.05;91.27;100688.03;5054739;28;20237;-77
2021/09/24 08:52:36;;;;;;;6.17;3.57;;;;;;;15.12;91.41;100676.38;5055213;28;20223;-78
2021/09/24 08:55:04;;;;;;;6.43;3.27;;;;;;;15.19;91.33;100669.16;5055184;28;20201;-78
2021/09/24 08:57:31;;;;;;;8.63;3.87;;;;;;;15.26;90.88;100687.28;5054715;28;20242;-78
2021/09/24 08:59:57;;;;;;;4.50;3.43;;;;;;;15.34;90.11;100707.19;5054714;28;20203;-78
2021/09/24 09:02:24;;;;;;;5.13;3.37;;;;;;;15.44;89.81;100714.72;5055418;28;20211;-78
2021/09/24 09:04:51;;;;;;;4.77;3.53;;;;;;;15.53;88.94;100739.00;5055521;28;20290;-77
2021/09/24 09:07:21;;;;;;;5.90;4.33;;;;;;;15.46;87.95;100776.03;5054987;28;20272;-77
2021/09/24 09:09:50;;;;;;;7.77;3.50;;;;;;;15.67;88.26;100757.78;5054620;28;20207;-77
2021/09/24 09:12:19;;;;;;;9.53;4.80;;;;;;;15.80;87.75;100780.19;5055174;28;20318;-78
2021/09/24 09:14:57;;;;;;;9.57;4.37;;;;;;;15.87;87.77;100786.06;5055388;28;20294;-77
2021/09/24 09:17:29;;;;;;;7.23;3.77;;;;;;;15.87;87.01;100807.97;5054642;28;20634;-78
2021/09/24 09:20:15;;;;;;;5.10;3.87;;;;;;;15.82;87.01;100804.66;5053691;28;20211;-77
2021/09/24 09:22:43;;;;;;;13.63;3.97;;;;;;;15.96;86.99;100792.81;5054224;28;20192;-77
2021/09/24 09:25:14;;;;;;;7.93;4.37;;;;;;;15.91;87.33;100781.56;5053860;28;20213;-77
2021/09/24 09:27:47;;;;;;;10.70;4.33;;;;;;;16.01;87.56;100762.72;5053761;28;20248;-78
2021/09/24 09:30:14;;;;;;;8.33;4.70;;;;;;;16.03;86.75;100789.00;5054072;28;20283;-77
2021/09/24 09:32:41;;;;;;;7.40;4.60;;;;;;;16.04;86.51;100799.50;5053290;28;20227;-78
2021/09/24 09:35:10;;;;;;;5.47;4.20;;;;;;;16.16;86.64;100802.63;5053447;28;20205;-77
2021/09/24 09:37:38;;;;;;;6.93;4.80;;;;;;;16.19;86.70;100779.63;5053777;28;20428;-77
2021/09/24 09:40:06;;;;;;;7.23;4.43;;;;;;;16.25;85.93;100813.69;5053110;28;20680;-77
2021/09/24 09:42:33;;;;;;;8.37;4.57;;;;;;;16.33;85.32;100837.09;5053456;28;20265;-77
2021/09/24 09:45:00;;;;;;;4.63;4.23;;;;;;;16.46;85.30;100838.38;5052993;28;20241;-77
2021/09/24 09:47:31;;;;;;;4.80;4.17;;;;;;;16.41;84.19;100864.03;5053752;28;20218;-77
2021/09/24 09:50:06;;;;;;;6.03;4.07;;;;;;;16.46;83.60;100879.66;5052846;28;20202;-77
2021/09/24 09:52:34;;;;;;;6.20;4.80;;;;;;;16.44;83.54;100892.03;5053559;28;20641;-77
2021/09/24 09:55:01;;;;;;;5.30;4.27;;;;;;;16.60;84.12;100868.63;5053434;28;20212;-78
2021/09/24 09:57:28;;;;;;;4.93;4.40;;;;;;;16.61;82.69;100913.38;5053151;28;20233;-78
2021/09/24 09:59:57;;;;;;;5.67;4.17;;;;;;;16.73;83.43;100882.19;5053232;28;20273;-78
2021/09/24 10:02:29;;;;;;;7.13;5.13;;;;;;;16.75;82.68;100902.34;5053668;28;20212;-77
2021/09/24 10:04:57;;;;;;;8.03;4.60;;;;;;;16.86;83.02;100889.63;5053307;28;20269;-77
2021/09/24 10:07:25;;;;;;;6.20;5.13;;;;;;;16.92;82.92;100898.22;5053915;28;20232;-79
2021/09/24 10:10:07;;;;;;;8.23;5.30;;;;;;;17.01;82.83;100879.41;5056732;28;20204;-79
2021/09/24 10:12:34;;;;;;;17.00;5.73;;;;;;;16.90;82.36;100898.28;5056141;28;20288;-79
2021/09/24 10:15:01;;;;;;;6.07;5.50;;;;;;;16.90;82.12;100903.53;5056858;28;20204;-79
2021/09/24 10:17:28;;;;;;;8.07;6.90;;;;;;;16.79;82.23;100905.72;5056356;28;20601;-79
2021/09/24 10:19:55;;;;;;;9.33;7.53;;;;;;;16.80;81.56;100913.53;5055633;28;20239;-79
2021/09/24 10:22:24;;;;;;;7.67;6.77;;;;;;;16.85;82.23;100889.69;5056718;28;20249;-78
2021/09/24 10:24:51;;;;;;;9.43;8.47;;;;;;;16.96;80.43;100929.69;5056445;28;20239;-79
2021/09/24 10:27:23;;;;;;;8.43;7.80;;;;;;;17.05;81.74;100902.13;5056518;28;20222;-79
2021/09/24 10:29:51;;;;;;;8.03;7.23;;;;;;;17.16;80.85;100923.66;5056654;28;20200;-79
2021/09/24 10:32:19;;;;;;;9.07;7.77;;;;;;;17.03;80.84;100938.25;5055909;28;20208;-79
2021/09/24 10:34:54;;;;;;;8.17;7.30;;;;;;;17.23;81.47;100897.91;5056190;28;20255;-79
2021/09/24 10:37:21;;;;;;;8.17;7.53;;;;;;;17.14;81.33;100928.13;5056235;28;20220;-78
2021/09/24 10:39:48;;;;;;;8.53;7.90;;;;;;;17.18;80.66;100932.34;5053954;28;20217;-79
2021/09/24 10:42:25;;;;;;;9.17;8.27;;;;;;;17.17;79.89;100951.75;5054436;28;20206;-79
2021/09/24 10:45:06;;;;;;;10.57;9.63;;;;;;;17.33;80.22;100944.13;5054622;28;20185;-78
2021/09/24 10:48:05;;;;;;;10.07;9.07;;;;;;;17.31;80.20;100948.59;5053940;28;20228;-78
2021/09/24 10:51:01;;;;;;;10.43;9.53;;;;;;;17.39;79.60;100953.56;4992004;28;20261;-79
2021/09/24 10:53:40;;;;;;;10.47;9.60;;;;;;;17.45;79.65;100948.91;5032955;28;20775;-78
2021/09/24 10:56:36;;;;;;;13.37;9.30;;;;;;;17.47;77.09;101038.59;5034548;28;20206;-78
2021/09/24 10:59:25;;;;;;;11.60;8.67;;;;;;;17.51;76.34;101076.28;5033968;28;20207;-78
2021/09/24 11:01:52;;;;;;;10.47;9.47;;;;;;;17.57;76.73;101039.97;5033977;28;20626;-79
2021/09/24 11:04:19;;;;;;;9.40;8.50;;;;;;;17.52;75.35;101093.84;5034338;28;20711;-78
2021/09/24 11:06:48;;;;;;;9.67;8.77;;;;;;;17.55;74.76;101083.19;5034271;28;20230;-79
2021/09/24 11:09:17;;;;;;;10.07;9.17;;;;;;;17.72;75.42;101079.88;5033826;28;20723;-78
2021/09/24 11:11:46;;;;;;;8.43;7.73;;;;;;;17.68;75.16;101081.81;5033782;28;20280;-78
2021/09/24 11:14:38;;;;;;;11.43;10.23;;;;;;;17.67;74.57;101104.69;5033801;28;20228;-78
2021/09/24 11:17:07;;;;;;;11.93;10.80;;;;;;;17.66;74.93;101102.13;5036223;28;20229;-78
2021/09/24 11:19:38;;;;;;;11.90;10.87;;;;;;;17.68;74.46;101102.94;5051845;28;20212;-77
2021/09/24 11:22:12;;;;;;;11.90;10.47;;;;;;;17.59;73.75;101113.81;5052348;28;20662;-77
2021/09/24 11:24:41;;;;;;;12.17;10.47;;;;;;;17.54;73.85;101113.13;5052269;28;20580;-77
2021/09/24 11:27:09;;;;;;;10.30;9.50;;;;;;;17.43;73.85;101109.09;5051495;28;20274;-76